sensor_id;sensor_type;location;lat;lon;timestamp;P1;durP1;ratioP1;P2;durP2;ratioP2
59127;SDS011;44912;52.754;5.994;2023-04-25T00:02:01;18.08;;;4.32;;
59127;SDS011;44912;52.754;5.994;2023-04-25T00:04:28;22.48;;;4.40;;
59127;SDS011;44912;52.754;5.994;2023-04-25T00:06:54;17.80;;;3.70;;
59127;SDS011;44912;52.754;5.994;2023-04-25T00:09:20;16.73;;;3.75;;
59127;SDS011;44912;52.754;5.994;2023-04-25T00:11:47;18.58;;;4.50;;
59127;SDS011;44912;52.754;5.994;2023-04-25T00:14:12;17.02;;;3.83;;
59127;SDS011;44912;52.754;5.994;2023-04-25T00:16:39;17.77;;;3.70;;
59127;SDS011;44912;52.754;5.994;2023-04-25T00:19:06;18.08;;;4.18;;
59127;SDS011;44912;52.754;5.994;2023-04-25T00:21:32;18.67;;;3.88;;
59127;SDS011;44912;52.754;5.994;2023-04-25T00:23:58;25.27;;;4.85;;
59127;SDS011;44912;52.754;5.994;2023-04-25T00:26:25;20.95;;;4.43;;
59127;SDS011;44912;52.754;5.994;2023-04-25T00:28:50;18.25;;;3.83;;
59127;SDS011;44912;52.754;5.994;2023-04-25T00:31:16;23.85;;;5.55;;
59127;SDS011;44912;52.754;5.994;2023-04-25T00:33:41;18.85;;;3.42;;
59127;SDS011;44912;52.754;5.994;2023-04-25T00:36:07;17.90;;;4.20;;
59127;SDS011;44912;52.754;5.994;2023-04-25T00:38:33;18.73;;;4.10;;
59127;SDS011;44912;52.754;5.994;2023-04-25T00:40:59;17.70;;;4.68;;
59127;SDS011;44912;52.754;5.994;2023-04-25T00:43:26;16.35;;;4.03;;
59127;SDS011;44912;52.754;5.994;2023-04-25T00:45:52;18.77;;;4.38;;
59127;SDS011;44912;52.754;5.994;2023-04-25T00:48:19;22.17;;;4.55;;
59127;SDS011;44912;52.754;5.994;2023-04-25T00:50:51;21.58;;;4.53;;
59127;SDS011;44912;52.754;5.994;2023-04-25T00:53:19;21.63;;;4.40;;
59127;SDS011;44912;52.754;5.994;2023-04-25T00:55:49;18.50;;;4.00;;
59127;SDS011;44912;52.754;5.994;2023-04-25T00:58:18;18.23;;;4.97;;
59127;SDS011;44912;52.754;5.994;2023-04-25T01:00:45;17.15;;;4.20;;
59127;SDS011;44912;52.754;5.994;2023-04-25T01:03:12;21.42;;;4.72;;
59127;SDS011;44912;52.754;5.994;2023-04-25T01:05:39;22.98;;;4.50;;
59127;SDS011;44912;52.754;5.994;2023-04-25T01:08:06;21.08;;;4.80;;
59127;SDS011;44912;52.754;5.994;2023-04-25T01:10:32;16.17;;;3.85;;
59127;SDS011;44912;52.754;5.994;2023-04-25T01:12:57;18.83;;;3.90;;
59127;SDS011;44912;52.754;5.994;2023-04-25T01:15:23;18.38;;;3.83;;
59127;SDS011;44912;52.754;5.994;2023-04-25T01:17:49;14.85;;;4.22;;
59127;SDS011;44912;52.754;5.994;2023-04-25T01:20:14;17.05;;;4.15;;
59127;SDS011;44912;52.754;5.994;2023-04-25T01:22:40;16.20;;;4.22;;
59127;SDS011;44912;52.754;5.994;2023-04-25T01:25:07;19.65;;;4.10;;
59127;SDS011;44912;52.754;5.994;2023-04-25T01:27:33;16.45;;;3.58;;
59127;SDS011;44912;52.754;5.994;2023-04-25T01:30:00;21.70;;;4.10;;
59127;SDS011;44912;52.754;5.994;2023-04-25T01:32:25;18.95;;;4.55;;
59127;SDS011;44912;52.754;5.994;2023-04-25T01:34:51;18.00;;;3.60;;
59127;SDS011;44912;52.754;5.994;2023-04-25T01:37:17;14.85;;;4.07;;
59127;SDS011;44912;52.754;5.994;2023-04-25T01:39:43;16.95;;;3.60;;
59127;SDS011;44912;52.754;5.994;2023-04-25T01:42:09;21.58;;;4.20;;
59127;SDS011;44912;52.754;5.994;2023-04-25T01:44:34;20.95;;;4.05;;
59127;SDS011;44912;52.754;5.994;2023-04-25T01:47:00;18.90;;;4.43;;
59127;SDS011;44912;52.754;5.994;2023-04-25T01:49:25;14.98;;;4.13;;
59127;SDS011;44912;52.754;5.994;2023-04-25T01:51:51;18.67;;;4.30;;
59127;SDS011;44912;52.754;5.994;2023-04-25T01:54:17;15.50;;;4.15;;
59127;SDS011;44912;52.754;5.994;2023-04-25T01:56:43;15.13;;;3.75;;
59127;SDS011;44912;52.754;5.994;2023-04-25T01:59:16;14.32;;;3.75;;
59127;SDS011;44912;52.754;5.994;2023-04-25T02:01:41;14.93;;;2.75;;
59127;SDS011;44912;52.754;5.994;2023-04-25T02:04:07;16.88;;;3.72;;
59127;SDS011;44912;52.754;5.994;2023-04-25T02:06:32;15.18;;;3.30;;
59127;SDS011;44912;52.754;5.994;2023-04-25T02:08:58;11.20;;;3.38;;
59127;SDS011;44912;52.754;5.994;2023-04-25T02:11:23;13.30;;;3.03;;
59127;SDS011;44912;52.754;5.994;2023-04-25T02:13:49;15.00;;;3.80;;
59127;SDS011;44912;52.754;5.994;2023-04-25T02:16:14;16.35;;;3.30;;
59127;SDS011;44912;52.754;5.994;2023-04-25T02:18:40;14.02;;;3.50;;
59127;SDS011;44912;52.754;5.994;2023-04-25T02:21:05;18.70;;;4.00;;
59127;SDS011;44912;52.754;5.994;2023-04-25T02:23:31;14.15;;;3.08;;
59127;SDS011;44912;52.754;5.994;2023-04-25T02:25:57;16.63;;;3.58;;
59127;SDS011;44912;52.754;5.994;2023-04-25T02:28:23;14.45;;;3.25;;
59127;SDS011;44912;52.754;5.994;2023-04-25T02:30:49;18.00;;;3.45;;
59127;SDS011;44912;52.754;5.994;2023-04-25T02:33:15;13.63;;;3.58;;
59127;SDS011;44912;52.754;5.994;2023-04-25T02:35:41;13.23;;;2.85;;
59127;SDS011;44912;52.754;5.994;2023-04-25T02:38:07;17.45;;;2.70;;
59127;SDS011;44912;52.754;5.994;2023-04-25T02:40:32;12.52;;;2.88;;
59127;SDS011;44912;52.754;5.994;2023-04-25T02:42:58;21.83;;;3.63;;
59127;SDS011;44912;52.754;5.994;2023-04-25T02:45:23;13.73;;;2.78;;
59127;SDS011;44912;52.754;5.994;2023-04-25T02:47:49;11.18;;;2.20;;
59127;SDS011;44912;52.754;5.994;2023-04-25T02:50:15;11.38;;;2.20;;
59127;SDS011;44912;52.754;5.994;2023-04-25T02:52:40;16.52;;;3.10;;
59127;SDS011;44912;52.754;5.994;2023-04-25T02:55:06;11.05;;;3.08;;
59127;SDS011;44912;52.754;5.994;2023-04-25T02:57:32;10.40;;;2.35;;
59127;SDS011;44912;52.754;5.994;2023-04-25T02:59:57;11.80;;;2.35;;
59127;SDS011;44912;52.754;5.994;2023-04-25T03:02:23;13.15;;;2.58;;
59127;SDS011;44912;52.754;5.994;2023-04-25T03:04:48;15.75;;;2.50;;
59127;SDS011;44912;52.754;5.994;2023-04-25T03:07:14;14.63;;;2.38;;
59127;SDS011;44912;52.754;5.994;2023-04-25T03:09:39;14.00;;;2.08;;
59127;SDS011;44912;52.754;5.994;2023-04-25T03:12:05;13.18;;;2.63;;
59127;SDS011;44912;52.754;5.994;2023-04-25T03:14:31;9.48;;;2.15;;
59127;SDS011;44912;52.754;5.994;2023-04-25T03:16:56;10.80;;;2.40;;
59127;SDS011;44912;52.754;5.994;2023-04-25T03:19:22;11.73;;;2.25;;
59127;SDS011;44912;52.754;5.994;2023-04-25T03:21:47;10.18;;;2.30;;
59127;SDS011;44912;52.754;5.994;2023-04-25T03:24:13;12.60;;;3.00;;
59127;SDS011;44912;52.754;5.994;2023-04-25T03:26:38;10.18;;;2.03;;
59127;SDS011;44912;52.754;5.994;2023-04-25T03:29:04;11.35;;;2.40;;
59127;SDS011;44912;52.754;5.994;2023-04-25T03:31:30;12.52;;;2.00;;
59127;SDS011;44912;52.754;5.994;2023-04-25T03:33:56;9.65;;;1.75;;
59127;SDS011;44912;52.754;5.994;2023-04-25T03:36:21;11.13;;;1.92;;
59127;SDS011;44912;52.754;5.994;2023-04-25T03:38:47;7.88;;;1.88;;
59127;SDS011;44912;52.754;5.994;2023-04-25T03:41:13;8.40;;;1.67;;
59127;SDS011;44912;52.754;5.994;2023-04-25T03:43:39;10.27;;;1.85;;
59127;SDS011;44912;52.754;5.994;2023-04-25T03:46:04;11.20;;;2.10;;
59127;SDS011;44912;52.754;5.994;2023-04-25T03:48:30;13.35;;;2.10;;
59127;SDS011;44912;52.754;5.994;2023-04-25T03:50:55;11.90;;;2.20;;
59127;SDS011;44912;52.754;5.994;2023-04-25T03:53:21;10.18;;;1.95;;
59127;SDS011;44912;52.754;5.994;2023-04-25T03:55:46;9.88;;;1.98;;
59127;SDS011;44912;52.754;5.994;2023-04-25T03:58:12;10.50;;;2.42;;
59127;SDS011;44912;52.754;5.994;2023-04-25T04:00:37;15.32;;;2.30;;
59127;SDS011;44912;52.754;5.994;2023-04-25T04:03:03;12.98;;;2.53;;
59127;SDS011;44912;52.754;5.994;2023-04-25T04:05:29;13.23;;;2.58;;
59127;SDS011;44912;52.754;5.994;2023-04-25T04:07:54;13.48;;;2.08;;
59127;SDS011;44912;52.754;5.994;2023-04-25T04:10:20;9.50;;;1.98;;
59127;SDS011;44912;52.754;5.994;2023-04-25T04:12:46;7.18;;;1.90;;
59127;SDS011;44912;52.754;5.994;2023-04-25T04:15:12;9.27;;;1.90;;
59127;SDS011;44912;52.754;5.994;2023-04-25T04:17:37;10.40;;;2.08;;
59127;SDS011;44912;52.754;5.994;2023-04-25T04:20:03;10.82;;;2.00;;
59127;SDS011;44912;52.754;5.994;2023-04-25T04:22:30;10.15;;;2.10;;
59127;SDS011;44912;52.754;5.994;2023-04-25T04:24:56;9.98;;;1.90;;
59127;SDS011;44912;52.754;5.994;2023-04-25T04:27:22;8.30;;;2.10;;
59127;SDS011;44912;52.754;5.994;2023-04-25T04:29:47;8.00;;;1.55;;
59127;SDS011;44912;52.754;5.994;2023-04-25T04:32:14;8.85;;;1.65;;
59127;SDS011;44912;52.754;5.994;2023-04-25T04:34:40;9.65;;;2.08;;
59127;SDS011;44912;52.754;5.994;2023-04-25T04:37:06;11.65;;;2.20;;
59127;SDS011;44912;52.754;5.994;2023-04-25T04:39:32;10.40;;;1.90;;
59127;SDS011;44912;52.754;5.994;2023-04-25T04:41:59;12.80;;;2.53;;
59127;SDS011;44912;52.754;5.994;2023-04-25T04:44:26;11.13;;;2.00;;
59127;SDS011;44912;52.754;5.994;2023-04-25T04:46:53;10.85;;;2.78;;
59127;SDS011;44912;52.754;5.994;2023-04-25T04:49:19;11.05;;;2.47;;
59127;SDS011;44912;52.754;5.994;2023-04-25T04:51:45;14.40;;;2.25;;
59127;SDS011;44912;52.754;5.994;2023-04-25T04:54:12;7.95;;;1.75;;
59127;SDS011;44912;52.754;5.994;2023-04-25T04:56:37;11.95;;;2.28;;
59127;SDS011;44912;52.754;5.994;2023-04-25T04:59:03;12.73;;;2.45;;
59127;SDS011;44912;52.754;5.994;2023-04-25T05:01:28;11.23;;;2.33;;
59127;SDS011;44912;52.754;5.994;2023-04-25T05:03:57;9.10;;;1.80;;
59127;SDS011;44912;52.754;5.994;2023-04-25T05:06:25;13.88;;;2.40;;
59127;SDS011;44912;52.754;5.994;2023-04-25T05:08:54;12.18;;;2.00;;
59127;SDS011;44912;52.754;5.994;2023-04-25T05:11:21;11.52;;;2.03;;
59127;SDS011;44912;52.754;5.994;2023-04-25T05:13:48;13.65;;;2.38;;
59127;SDS011;44912;52.754;5.994;2023-04-25T05:16:14;12.05;;;2.55;;
59127;SDS011;44912;52.754;5.994;2023-04-25T05:18:40;12.32;;;2.00;;
59127;SDS011;44912;52.754;5.994;2023-04-25T05:21:06;17.95;;;2.42;;
59127;SDS011;44912;52.754;5.994;2023-04-25T05:23:32;13.30;;;2.15;;
59127;SDS011;44912;52.754;5.994;2023-04-25T05:25:58;9.85;;;2.25;;
59127;SDS011;44912;52.754;5.994;2023-04-25T05:28:24;13.60;;;2.40;;
59127;SDS011;44912;52.754;5.994;2023-04-25T05:30:50;11.77;;;2.03;;
59127;SDS011;44912;52.754;5.994;2023-04-25T05:33:16;10.85;;;2.17;;
59127;SDS011;44912;52.754;5.994;2023-04-25T05:35:41;8.93;;;1.73;;
59127;SDS011;44912;52.754;5.994;2023-04-25T05:38:07;11.02;;;2.28;;
59127;SDS011;44912;52.754;5.994;2023-04-25T05:40:33;10.57;;;1.90;;
59127;SDS011;44912;52.754;5.994;2023-04-25T05:42:59;7.25;;;1.40;;
59127;SDS011;44912;52.754;5.994;2023-04-25T05:45:24;9.32;;;1.80;;
59127;SDS011;44912;52.754;5.994;2023-04-25T05:47:50;6.22;;;1.45;;
59127;SDS011;44912;52.754;5.994;2023-04-25T05:50:15;9.23;;;1.70;;
59127;SDS011;44912;52.754;5.994;2023-04-25T05:52:41;9.82;;;1.70;;
59127;SDS011;44912;52.754;5.994;2023-04-25T05:55:06;8.35;;;1.75;;
59127;SDS011;44912;52.754;5.994;2023-04-25T05:57:32;9.02;;;2.05;;
59127;SDS011;44912;52.754;5.994;2023-04-25T05:59:58;12.90;;;2.40;;
59127;SDS011;44912;52.754;5.994;2023-04-25T06:02:23;9.02;;;3.45;;
59127;SDS011;44912;52.754;5.994;2023-04-25T06:04:49;26.75;;;8.65;;
59127;SDS011;44912;52.754;5.994;2023-04-25T06:07:16;27.02;;;10.32;;
59127;SDS011;44912;52.754;5.994;2023-04-25T06:09:42;22.58;;;6.82;;
59127;SDS011;44912;52.754;5.994;2023-04-25T06:12:08;12.23;;;3.60;;
59127;SDS011;44912;52.754;5.994;2023-04-25T06:14:34;11.73;;;1.98;;
59127;SDS011;44912;52.754;5.994;2023-04-25T06:17:00;9.05;;;1.35;;
59127;SDS011;44912;52.754;5.994;2023-04-25T06:19:31;9.20;;;1.55;;
59127;SDS011;44912;52.754;5.994;2023-04-25T06:21:57;13.77;;;1.90;;
59127;SDS011;44912;52.754;5.994;2023-04-25T06:24:23;8.32;;;1.88;;
59127;SDS011;44912;52.754;5.994;2023-04-25T06:26:49;7.53;;;1.60;;
59127;SDS011;44912;52.754;5.994;2023-04-25T06:29:15;9.98;;;1.70;;
59127;SDS011;44912;52.754;5.994;2023-04-25T06:31:40;11.45;;;1.95;;
59127;SDS011;44912;52.754;5.994;2023-04-25T06:34:06;6.88;;;1.65;;
59127;SDS011;44912;52.754;5.994;2023-04-25T06:36:31;12.05;;;2.10;;
59127;SDS011;44912;52.754;5.994;2023-04-25T06:38:57;10.43;;;2.05;;
59127;SDS011;44912;52.754;5.994;2023-04-25T06:41:22;10.52;;;1.98;;
59127;SDS011;44912;52.754;5.994;2023-04-25T06:43:48;10.82;;;1.80;;
59127;SDS011;44912;52.754;5.994;2023-04-25T06:46:14;8.60;;;1.70;;
59127;SDS011;44912;52.754;5.994;2023-04-25T06:48:39;10.48;;;2.05;;
59127;SDS011;44912;52.754;5.994;2023-04-25T06:51:05;11.80;;;1.92;;
59127;SDS011;44912;52.754;5.994;2023-04-25T06:53:30;8.80;;;1.90;;
59127;SDS011;44912;52.754;5.994;2023-04-25T06:55:56;19.52;;;5.35;;
59127;SDS011;44912;52.754;5.994;2023-04-25T06:58:21;24.58;;;8.38;;
59127;SDS011;44912;52.754;5.994;2023-04-25T07:00:47;13.35;;;3.30;;
59127;SDS011;44912;52.754;5.994;2023-04-25T07:03:13;13.40;;;3.53;;
59127;SDS011;44912;52.754;5.994;2023-04-25T07:05:38;14.25;;;3.17;;
59127;SDS011;44912;52.754;5.994;2023-04-25T07:08:04;12.45;;;2.80;;
59127;SDS011;44912;52.754;5.994;2023-04-25T07:10:30;10.90;;;1.95;;
59127;SDS011;44912;52.754;5.994;2023-04-25T07:12:58;11.27;;;2.00;;
59127;SDS011;44912;52.754;5.994;2023-04-25T07:15:24;10.88;;;1.88;;
59127;SDS011;44912;52.754;5.994;2023-04-25T07:17:49;14.65;;;2.70;;
59127;SDS011;44912;52.754;5.994;2023-04-25T07:20:15;10.38;;;1.83;;
59127;SDS011;44912;52.754;5.994;2023-04-25T07:22:41;9.38;;;1.83;;
59127;SDS011;44912;52.754;5.994;2023-04-25T07:25:06;12.32;;;2.60;;
59127;SDS011;44912;52.754;5.994;2023-04-25T07:27:33;11.90;;;1.83;;
59127;SDS011;44912;52.754;5.994;2023-04-25T07:29:59;12.57;;;2.47;;
59127;SDS011;44912;52.754;5.994;2023-04-25T07:32:25;10.57;;;1.73;;
59127;SDS011;44912;52.754;5.994;2023-04-25T07:34:51;9.88;;;1.98;;
59127;SDS011;44912;52.754;5.994;2023-04-25T07:37:20;9.40;;;1.83;;
59127;SDS011;44912;52.754;5.994;2023-04-25T07:39:46;10.63;;;1.70;;
59127;SDS011;44912;52.754;5.994;2023-04-25T07:42:12;5.47;;;1.38;;
59127;SDS011;44912;52.754;5.994;2023-04-25T07:44:37;9.50;;;2.13;;
59127;SDS011;44912;52.754;5.994;2023-04-25T07:47:05;10.80;;;2.00;;
59127;SDS011;44912;52.754;5.994;2023-04-25T07:49:34;10.00;;;2.25;;
59127;SDS011;44912;52.754;5.994;2023-04-25T07:52:00;9.43;;;1.67;;
59127;SDS011;44912;52.754;5.994;2023-04-25T07:54:26;8.70;;;1.50;;
59127;SDS011;44912;52.754;5.994;2023-04-25T07:56:52;6.43;;;1.38;;
59127;SDS011;44912;52.754;5.994;2023-04-25T07:59:18;7.25;;;1.23;;
59127;SDS011;44912;52.754;5.994;2023-04-25T08:01:44;4.70;;;1.00;;
59127;SDS011;44912;52.754;5.994;2023-04-25T08:04:09;5.35;;;1.10;;
59127;SDS011;44912;52.754;5.994;2023-04-25T08:06:35;6.15;;;1.30;;
59127;SDS011;44912;52.754;5.994;2023-04-25T08:09:01;7.35;;;1.50;;
59127;SDS011;44912;52.754;5.994;2023-04-25T08:11:27;6.28;;;1.30;;
59127;SDS011;44912;52.754;5.994;2023-04-25T08:13:53;8.93;;;1.40;;
59127;SDS011;44912;52.754;5.994;2023-04-25T08:16:19;6.78;;;1.70;;
59127;SDS011;44912;52.754;5.994;2023-04-25T08:18:44;10.65;;;1.83;;
59127;SDS011;44912;52.754;5.994;2023-04-25T08:21:10;8.88;;;2.00;;
59127;SDS011;44912;52.754;5.994;2023-04-25T08:23:36;8.27;;;1.40;;
59127;SDS011;44912;52.754;5.994;2023-04-25T08:26:02;9.10;;;1.67;;
59127;SDS011;44912;52.754;5.994;2023-04-25T08:28:28;11.73;;;2.00;;
59127;SDS011;44912;52.754;5.994;2023-04-25T08:30:54;9.90;;;2.00;;
59127;SDS011;44912;52.754;5.994;2023-04-25T08:33:19;9.30;;;2.13;;
59127;SDS011;44912;52.754;5.994;2023-04-25T08:35:45;14.50;;;2.22;;
59127;SDS011;44912;52.754;5.994;2023-04-25T08:38:10;11.32;;;2.20;;
59127;SDS011;44912;52.754;5.994;2023-04-25T08:40:37;11.35;;;2.05;;
59127;SDS011;44912;52.754;5.994;2023-04-25T08:43:04;10.35;;;1.85;;
59127;SDS011;44912;52.754;5.994;2023-04-25T08:45:36;9.43;;;1.63;;
59127;SDS011;44912;52.754;5.994;2023-04-25T08:48:05;10.43;;;2.03;;
59127;SDS011;44912;52.754;5.994;2023-04-25T08:50:36;8.63;;;1.90;;
59127;SDS011;44912;52.754;5.994;2023-04-25T08:53:04;6.85;;;1.75;;
59127;SDS011;44912;52.754;5.994;2023-04-25T08:55:34;10.00;;;1.95;;
59127;SDS011;44912;52.754;5.994;2023-04-25T08:58:03;9.45;;;1.60;;
59127;SDS011;44912;52.754;5.994;2023-04-25T09:00:30;11.73;;;2.70;;
59127;SDS011;44912;52.754;5.994;2023-04-25T09:02:56;7.68;;;1.60;;
59127;SDS011;44912;52.754;5.994;2023-04-25T09:05:23;10.93;;;1.42;;
59127;SDS011;44912;52.754;5.994;2023-04-25T09:07:49;8.75;;;1.83;;
59127;SDS011;44912;52.754;5.994;2023-04-25T09:10:15;8.23;;;1.38;;
59127;SDS011;44912;52.754;5.994;2023-04-25T09:12:40;10.80;;;2.10;;
59127;SDS011;44912;52.754;5.994;2023-04-25T09:15:07;10.60;;;2.70;;
59127;SDS011;44912;52.754;5.994;2023-04-25T09:17:36;9.88;;;2.35;;
59127;SDS011;44912;52.754;5.994;2023-04-25T09:20:09;6.85;;;1.77;;
59127;SDS011;44912;52.754;5.994;2023-04-25T09:22:37;6.18;;;1.58;;
59127;SDS011;44912;52.754;5.994;2023-04-25T09:25:12;9.57;;;1.52;;
59127;SDS011;44912;52.754;5.994;2023-04-25T09:27:51;5.68;;;1.27;;
59127;SDS011;44912;52.754;5.994;2023-04-25T09:30:30;10.77;;;2.00;;
59127;SDS011;44912;52.754;5.994;2023-04-25T09:32:57;7.80;;;1.73;;
59127;SDS011;44912;52.754;5.994;2023-04-25T09:35:29;7.40;;;1.30;;
59127;SDS011;44912;52.754;5.994;2023-04-25T09:37:59;11.48;;;1.80;;
59127;SDS011;44912;52.754;5.994;2023-04-25T09:40:25;6.93;;;1.80;;
59127;SDS011;44912;52.754;5.994;2023-04-25T09:42:51;12.50;;;2.45;;
59127;SDS011;44912;52.754;5.994;2023-04-25T09:45:17;6.28;;;1.52;;
59127;SDS011;44912;52.754;5.994;2023-04-25T09:47:42;8.13;;;1.65;;
59127;SDS011;44912;52.754;5.994;2023-04-25T09:50:14;9.10;;;1.70;;
59127;SDS011;44912;52.754;5.994;2023-04-25T09:52:41;10.10;;;1.67;;
59127;SDS011;44912;52.754;5.994;2023-04-25T09:55:06;9.05;;;1.58;;
59127;SDS011;44912;52.754;5.994;2023-04-25T09:57:32;9.07;;;2.47;;
59127;SDS011;44912;52.754;5.994;2023-04-25T09:59:58;7.35;;;1.95;;
59127;SDS011;44912;52.754;5.994;2023-04-25T10:02:26;9.55;;;1.80;;
59127;SDS011;44912;52.754;5.994;2023-04-25T10:04:53;11.75;;;3.83;;
59127;SDS011;44912;52.754;5.994;2023-04-25T10:07:20;10.82;;;2.70;;
59127;SDS011;44912;52.754;5.994;2023-04-25T10:09:50;9.95;;;1.65;;
59127;SDS011;44912;52.754;5.994;2023-04-25T10:12:29;7.88;;;1.80;;
59127;SDS011;44912;52.754;5.994;2023-04-25T10:14:58;7.80;;;1.67;;
59127;SDS011;44912;52.754;5.994;2023-04-25T10:17:25;7.75;;;1.40;;
59127;SDS011;44912;52.754;5.994;2023-04-25T10:19:52;9.23;;;1.58;;
59127;SDS011;44912;52.754;5.994;2023-04-25T10:24:55;8.50;;;1.42;;
59127;SDS011;44912;52.754;5.994;2023-04-25T10:27:21;8.90;;;1.58;;
59127;SDS011;44912;52.754;5.994;2023-04-25T10:29:59;7.50;;;1.55;;
59127;SDS011;44912;52.754;5.994;2023-04-25T10:32:36;8.48;;;1.42;;
59127;SDS011;44912;52.754;5.994;2023-04-25T10:35:15;8.40;;;1.60;;
59127;SDS011;44912;52.754;5.994;2023-04-25T10:38:10;8.35;;;1.80;;
59127;SDS011;44912;52.754;5.994;2023-04-25T10:40:39;8.60;;;1.60;;
59127;SDS011;44912;52.754;5.994;2023-04-25T10:46:01;8.35;;;1.67;;
59127;SDS011;44912;52.754;5.994;2023-04-25T10:48:31;6.55;;;1.40;;
59127;SDS011;44912;52.754;5.994;2023-04-25T10:51:09;6.68;;;1.70;;
59127;SDS011;44912;52.754;5.994;2023-04-25T10:53:35;5.22;;;1.50;;
59127;SDS011;44912;52.754;5.994;2023-04-25T10:56:11;10.40;;;1.50;;
59127;SDS011;44912;52.754;5.994;2023-04-25T10:58:49;9.65;;;1.77;;
59127;SDS011;44912;52.754;5.994;2023-04-25T11:01:24;8.18;;;1.60;;
59127;SDS011;44912;52.754;5.994;2023-04-25T11:03:56;7.22;;;1.23;;
59127;SDS011;44912;52.754;5.994;2023-04-25T11:06:25;8.10;;;1.98;;
59127;SDS011;44912;52.754;5.994;2023-04-25T11:09:02;8.90;;;1.80;;
59127;SDS011;44912;52.754;5.994;2023-04-25T11:11:28;6.93;;;1.42;;
59127;SDS011;44912;52.754;5.994;2023-04-25T11:13:54;7.07;;;1.48;;
59127;SDS011;44912;52.754;5.994;2023-04-25T11:16:19;8.50;;;2.28;;
59127;SDS011;44912;52.754;5.994;2023-04-25T11:18:49;6.40;;;1.38;;
59127;SDS011;44912;52.754;5.994;2023-04-25T11:21:15;9.13;;;1.73;;
59127;SDS011;44912;52.754;5.994;2023-04-25T11:23:44;7.80;;;1.50;;
59127;SDS011;44912;52.754;5.994;2023-04-25T11:26:11;10.70;;;1.85;;
59127;SDS011;44912;52.754;5.994;2023-04-25T11:28:38;6.70;;;1.45;;
59127;SDS011;44912;52.754;5.994;2023-04-25T11:31:03;5.40;;;1.40;;
59127;SDS011;44912;52.754;5.994;2023-04-25T11:33:29;10.35;;;2.13;;
59127;SDS011;44912;52.754;5.994;2023-04-25T11:35:55;11.57;;;3.38;;
59127;SDS011;44912;52.754;5.994;2023-04-25T11:38:24;7.13;;;1.40;;
59127;SDS011;44912;52.754;5.994;2023-04-25T11:40:51;6.68;;;1.50;;
59127;SDS011;44912;52.754;5.994;2023-04-25T11:43:17;7.13;;;1.30;;
59127;SDS011;44912;52.754;5.994;2023-04-25T11:45:48;7.15;;;1.20;;
59127;SDS011;44912;52.754;5.994;2023-04-25T11:48:15;6.75;;;1.10;;
59127;SDS011;44912;52.754;5.994;2023-04-25T11:50:41;11.98;;;4.10;;
59127;SDS011;44912;52.754;5.994;2023-04-25T11:53:07;22.60;;;8.38;;
59127;SDS011;44912;52.754;5.994;2023-04-25T11:55:33;14.82;;;5.57;;
59127;SDS011;44912;52.754;5.994;2023-04-25T11:58:00;12.80;;;2.72;;
59127;SDS011;44912;52.754;5.994;2023-04-25T12:00:26;8.88;;;2.28;;
59127;SDS011;44912;52.754;5.994;2023-04-25T12:02:52;8.35;;;1.88;;
59127;SDS011;44912;52.754;5.994;2023-04-25T12:05:19;14.98;;;5.80;;
59127;SDS011;44912;52.754;5.994;2023-04-25T12:07:45;14.52;;;5.53;;
59127;SDS011;44912;52.754;5.994;2023-04-25T12:10:12;12.48;;;4.13;;
59127;SDS011;44912;52.754;5.994;2023-04-25T12:12:43;12.20;;;4.22;;
59127;SDS011;44912;52.754;5.994;2023-04-25T12:15:16;9.43;;;2.60;;
59127;SDS011;44912;52.754;5.994;2023-04-25T12:17:50;8.75;;;1.80;;
59127;SDS011;44912;52.754;5.994;2023-04-25T12:20:21;11.35;;;2.58;;
59127;SDS011;44912;52.754;5.994;2023-04-25T12:22:49;11.27;;;2.00;;
59127;SDS011;44912;52.754;5.994;2023-04-25T12:28:19;10.18;;;2.50;;
59127;SDS011;44912;52.754;5.994;2023-04-25T12:33:18;12.35;;;2.78;;
59127;SDS011;44912;52.754;5.994;2023-04-25T12:35:44;9.40;;;1.73;;
59127;SDS011;44912;52.754;5.994;2023-04-25T12:38:09;8.65;;;1.40;;
59127;SDS011;44912;52.754;5.994;2023-04-25T12:40:35;8.20;;;1.25;;
59127;SDS011;44912;52.754;5.994;2023-04-25T12:43:01;7.70;;;1.42;;
59127;SDS011;44912;52.754;5.994;2023-04-25T12:45:26;8.75;;;1.88;;
59127;SDS011;44912;52.754;5.994;2023-04-25T12:47:52;10.65;;;1.70;;
59127;SDS011;44912;52.754;5.994;2023-04-25T12:50:17;11.05;;;3.05;;
59127;SDS011;44912;52.754;5.994;2023-04-25T12:52:43;10.88;;;2.30;;
59127;SDS011;44912;52.754;5.994;2023-04-25T12:55:08;9.93;;;1.92;;
59127;SDS011;44912;52.754;5.994;2023-04-25T12:57:34;4.70;;;1.10;;
59127;SDS011;44912;52.754;5.994;2023-04-25T13:00:00;5.68;;;1.20;;
59127;SDS011;44912;52.754;5.994;2023-04-25T13:02:25;9.25;;;1.63;;
59127;SDS011;44912;52.754;5.994;2023-04-25T13:04:51;9.00;;;1.40;;
59127;SDS011;44912;52.754;5.994;2023-04-25T13:07:16;14.15;;;3.63;;
59127;SDS011;44912;52.754;5.994;2023-04-25T13:09:42;9.88;;;2.08;;
59127;SDS011;44912;52.754;5.994;2023-04-25T13:12:08;14.35;;;3.35;;
59127;SDS011;44912;52.754;5.994;2023-04-25T13:14:33;12.70;;;2.75;;
59127;SDS011;44912;52.754;5.994;2023-04-25T13:16:59;7.57;;;1.42;;
59127;SDS011;44912;52.754;5.994;2023-04-25T13:19:25;8.88;;;1.40;;
59127;SDS011;44912;52.754;5.994;2023-04-25T13:21:51;8.40;;;1.35;;
59127;SDS011;44912;52.754;5.994;2023-04-25T13:24:16;6.95;;;1.98;;
59127;SDS011;44912;52.754;5.994;2023-04-25T13:26:43;5.97;;;1.20;;
59127;SDS011;44912;52.754;5.994;2023-04-25T13:29:08;4.68;;;1.20;;
59127;SDS011;44912;52.754;5.994;2023-04-25T13:31:34;4.32;;;1.05;;
59127;SDS011;44912;52.754;5.994;2023-04-25T13:34:00;8.85;;;1.52;;
59127;SDS011;44912;52.754;5.994;2023-04-25T13:36:25;5.00;;;1.30;;
59127;SDS011;44912;52.754;5.994;2023-04-25T13:38:51;9.10;;;2.35;;
59127;SDS011;44912;52.754;5.994;2023-04-25T13:41:16;10.98;;;1.98;;
59127;SDS011;44912;52.754;5.994;2023-04-25T13:43:43;10.05;;;2.40;;
59127;SDS011;44912;52.754;5.994;2023-04-25T13:46:11;6.20;;;1.70;;
59127;SDS011;44912;52.754;5.994;2023-04-25T13:48:38;11.07;;;3.25;;
59127;SDS011;44912;52.754;5.994;2023-04-25T13:51:03;6.65;;;1.20;;
59127;SDS011;44912;52.754;5.994;2023-04-25T13:53:29;10.73;;;1.50;;
59127;SDS011;44912;52.754;5.994;2023-04-25T13:55:54;5.75;;;1.30;;
59127;SDS011;44912;52.754;5.994;2023-04-25T13:58:20;6.50;;;1.45;;
59127;SDS011;44912;52.754;5.994;2023-04-25T14:00:46;6.18;;;1.10;;
59127;SDS011;44912;52.754;5.994;2023-04-25T14:03:11;3.17;;;0.90;;
59127;SDS011;44912;52.754;5.994;2023-04-25T14:05:37;8.90;;;1.35;;
59127;SDS011;44912;52.754;5.994;2023-04-25T14:08:04;7.18;;;1.88;;
59127;SDS011;44912;52.754;5.994;2023-04-25T14:10:30;10.02;;;3.22;;
59127;SDS011;44912;52.754;5.994;2023-04-25T14:12:56;12.13;;;2.90;;
59127;SDS011;44912;52.754;5.994;2023-04-25T14:15:21;8.75;;;2.40;;
59127;SDS011;44912;52.754;5.994;2023-04-25T14:17:47;11.48;;;2.10;;
59127;SDS011;44912;52.754;5.994;2023-04-25T14:20:13;8.57;;;1.65;;
59127;SDS011;44912;52.754;5.994;2023-04-25T14:22:39;7.32;;;1.88;;
59127;SDS011;44912;52.754;5.994;2023-04-25T14:25:08;12.63;;;2.22;;
59127;SDS011;44912;52.754;5.994;2023-04-25T14:27:34;6.82;;;1.70;;
59127;SDS011;44912;52.754;5.994;2023-04-25T14:29:59;7.10;;;1.40;;
59127;SDS011;44912;52.754;5.994;2023-04-25T14:32:25;5.57;;;1.10;;
59127;SDS011;44912;52.754;5.994;2023-04-25T14:34:50;7.38;;;1.40;;
59127;SDS011;44912;52.754;5.994;2023-04-25T14:37:16;7.28;;;1.65;;
59127;SDS011;44912;52.754;5.994;2023-04-25T14:39:42;8.88;;;2.25;;
59127;SDS011;44912;52.754;5.994;2023-04-25T14:42:07;12.18;;;2.10;;
59127;SDS011;44912;52.754;5.994;2023-04-25T14:44:33;7.85;;;1.90;;
59127;SDS011;44912;52.754;5.994;2023-04-25T14:46:58;6.47;;;1.63;;
59127;SDS011;44912;52.754;5.994;2023-04-25T14:49:24;12.57;;;2.17;;